Terminal Aerodrome Forecast
Issued by NWS Omaha/Valley, NE

Home | Current Version | Previous Version | Text Only | Print | Product List | Glossary On
Versions: 1 2 3 4 5 6 7 8 9 10 11 12 13 14 15 16 17 18 19 20 21 22 23 24 25 26 27 28 29 30 31 32 33 34 35 36 37
000
FTUS43 KOAX 030520
TAFLNK
TAF
KLNK 030520Z 0306/0406 15007KT P6SM SCT050
      TEMPO 0311/0313 P6SM BKN015
     FM031300 16008KT P6SM BKN025
      TEMPO 0313/0316 4SM BR BKN015
     FM031700 18013KT P6SM BKN050
     FM031800 18016G24KT P6SM BKN250=

USA.gov is the U.S. government's official web portal to all federal, state and local government web resources and services.